Time;durP1;ratioP1;P1;durP2;ratioP2;P2;SDS_P1;SDS_P2;PMS_P1;PMS_P2;Temp;Humidity;BMP_temperature;BMP_pressure;BME280_temperature;BME280_humidity;BME280_pressure;Samples;Min_cycle;Max_cycle;Signal;HPM_P1;HPM_P2
2023/08/18 00:00:13;;;;;;;6.70;2.92;;;20.80;99.90;;;;;;5033833;28;20203;-61
2023/08/18 00:02:39;;;;;;;7.75;3.35;;;20.70;99.90;;;;;;5033618;28;20268;-61
2023/08/18 00:05:09;;;;;;;7.05;2.88;;;20.70;99.90;;;;;;5033231;28;20298;-60
2023/08/18 00:07:35;;;;;;;5.65;2.60;;;20.60;99.90;;;;;;5033143;28;20206;-60
2023/08/18 00:10:02;;;;;;;5.28;3.10;;;20.60;99.90;;;;;;5033429;28;20213;-60
2023/08/18 00:12:29;;;;;;;8.95;3.38;;;20.60;99.90;;;;;;5033480;28;20226;-60
2023/08/18 00:14:56;;;;;;;7.45;3.60;;;20.50;99.90;;;;;;5033250;28;20202;-60
2023/08/18 00:17:23;;;;;;;5.03;3.13;;;20.50;99.90;;;;;;5032888;28;20233;-59
2023/08/18 00:19:50;;;;;;;8.80;3.30;;;20.40;99.90;;;;;;5033005;28;20213;-60
2023/08/18 00:22:18;;;;;;;5.90;2.92;;;20.50;99.90;;;;;;5033202;28;20222;-61
2023/08/18 00:24:45;;;;;;;6.32;3.25;;;20.40;99.90;;;;;;5033095;28;20213;-60
2023/08/18 00:27:11;;;;;;;4.30;2.95;;;20.40;99.90;;;;;;5033067;28;20233;-59
2023/08/18 00:29:38;;;;;;;5.03;3.00;;;20.30;99.90;;;;;;5033433;28;20218;-61
2023/08/18 00:32:05;;;;;;;6.13;3.03;;;20.30;99.90;;;;;;5033435;28;20233;-60
2023/08/18 00:34:32;;;;;;;7.72;3.10;;;20.40;99.90;;;;;;5033679;28;20233;-60
2023/08/18 00:36:58;;;;;;;5.43;3.08;;;20.40;99.90;;;;;;5034432;28;20250;-60
2023/08/18 00:39:26;;;;;;;5.70;2.83;;;20.50;99.90;;;;;;5034933;28;20643;-60
2023/08/18 00:41:54;;;;;;;6.88;3.03;;;20.50;99.90;;;;;;5033250;28;20263;-60
2023/08/18 00:44:20;;;;;;;6.22;3.20;;;20.50;99.90;;;;;;5034082;28;20241;-61
2023/08/18 00:46:47;;;;;;;6.28;3.20;;;20.40;99.90;;;;;;5033402;28;20202;-61
2023/08/18 00:49:17;;;;;;;3.85;2.70;;;20.50;99.90;;;;;;5033954;28;20225;-60
2023/08/18 00:51:44;;;;;;;5.55;3.00;;;20.50;99.90;;;;;;5033790;28;20214;-60
2023/08/18 00:54:12;;;;;;;5.03;2.95;;;20.40;99.90;;;;;;5032607;28;20252;-60
2023/08/18 00:56:41;;;;;;;3.78;3.00;;;20.30;99.90;;;;;;5032243;28;20238;-61
2023/08/18 00:59:08;;;;;;;6.63;2.85;;;20.40;99.90;;;;;;5032613;28;20213;-61
2023/08/18 01:01:35;;;;;;;3.83;2.85;;;20.30;99.90;;;;;;5032446;28;20206;-60
2023/08/18 01:04:02;;;;;;;4.32;2.60;;;20.30;99.90;;;;;;5032691;28;20235;-60
2023/08/18 01:06:29;;;;;;;7.60;2.90;;;20.20;99.90;;;;;;5032815;28;20206;-60
2023/08/18 01:08:56;;;;;;;3.80;2.63;;;20.10;99.90;;;;;;5032400;28;20218;-58
2023/08/18 01:11:33;;;;;;;4.35;2.70;;;20.10;99.90;;;;;;5032196;28;20320;-58
2023/08/18 01:14:13;;;;;;;4.05;2.83;;;20.20;99.90;;;;;;5032253;28;20222;-58
2023/08/18 01:16:44;;;;;;;4.43;2.50;;;20.30;99.90;;;;;;5031934;28;20222;-58
2023/08/18 01:19:15;;;;;;;4.82;2.78;;;20.30;99.90;;;;;;5032020;28;20588;-58
2023/08/18 01:21:43;;;;;;;7.13;2.95;;;20.40;99.90;;;;;;5032143;28;20214;-57
2023/08/18 01:24:11;;;;;;;8.10;3.03;;;20.40;99.90;;;;;;5032166;28;20232;-58
2023/08/18 01:26:38;;;;;;;5.20;3.00;;;20.50;99.90;;;;;;5031796;28;20198;-58
2023/08/18 01:29:05;;;;;;;4.28;2.70;;;20.50;99.90;;;;;;5032161;28;20206;-58
2023/08/18 01:31:36;;;;;;;6.32;2.85;;;20.40;99.90;;;;;;5032181;28;20210;-59
2023/08/18 01:34:06;;;;;;;4.47;2.78;;;20.40;99.90;;;;;;5031763;28;20753;-58
2023/08/18 01:36:37;;;;;;;3.97;2.42;;;20.30;99.90;;;;;;5031335;28;20698;-59
2023/08/18 01:39:06;;;;;;;3.92;2.80;;;20.30;99.90;;;;;;5031701;28;20670;-58
2023/08/18 01:41:35;;;;;;;4.40;2.40;;;20.20;99.90;;;;;;5031935;28;20201;-58
2023/08/18 01:44:02;;;;;;;4.07;2.38;;;20.10;99.90;;;;;;5032038;28;20289;-59
2023/08/18 01:46:29;;;;;;;5.57;2.55;;;20.10;99.90;;;;;;5031436;28;20209;-59
2023/08/18 01:48:55;;;;;;;3.58;2.40;;;20.00;99.90;;;;;;5031738;28;20202;-58
2023/08/18 01:51:22;;;;;;;4.68;2.30;;;20.00;99.90;;;;;;5031591;28;20206;-59
2023/08/18 01:53:48;;;;;;;4.60;2.42;;;20.00;99.90;;;;;;5032024;28;20234;-58
2023/08/18 01:56:15;;;;;;;6.95;2.63;;;19.90;99.90;;;;;;5031245;28;20674;-59
2023/08/18 01:58:43;;;;;;;6.65;2.35;;;19.80;99.90;;;;;;5031756;28;20218;-60
2023/08/18 02:01:10;;;;;;;4.65;2.50;;;19.90;99.90;;;;;;5031616;28;20202;-59
2023/08/18 02:03:37;;;;;;;6.38;2.70;;;19.90;99.90;;;;;;5031356;28;20643;-59
2023/08/18 02:06:03;;;;;;;4.82;2.75;;;20.00;99.90;;;;;;5030436;28;20828;-59
2023/08/18 02:08:30;;;;;;;4.88;2.42;;;20.10;99.90;;;;;;5031623;28;20213;-59
2023/08/18 02:11:02;;;;;;;5.28;2.70;;;20.20;99.90;;;;;;5031580;28;20202;-59
2023/08/18 02:13:29;;;;;;;3.90;2.40;;;20.20;99.90;;;;;;5031526;28;20254;-59
2023/08/18 02:15:57;;;;;;;3.63;2.22;;;20.30;99.90;;;;;;5031076;28;20206;-59
2023/08/18 02:18:23;;;;;;;3.40;2.47;;;20.30;99.90;;;;;;5031310;28;20229;-59
2023/08/18 02:20:56;;;;;;;4.28;2.50;;;20.30;99.90;;;;;;5031609;28;20206;-58
2023/08/18 02:23:22;;;;;;;7.80;2.90;;;20.30;99.90;;;;;;5031393;28;20254;-59
2023/08/18 02:25:49;;;;;;;5.78;2.72;;;20.30;99.90;;;;;;5031106;28;20238;-59
2023/08/18 02:28:17;;;;;;;2.85;2.55;;;20.30;99.90;;;;;;5031319;28;20209;-59
2023/08/18 02:30:44;;;;;;;3.92;2.38;;;20.40;99.90;;;;;;5031108;28;20232;-59
2023/08/18 02:33:12;;;;;;;4.20;2.72;;;20.30;99.90;;;;;;5031145;28;20226;-60
2023/08/18 02:35:42;;;;;;;4.30;2.33;;;20.30;99.90;;;;;;5030929;28;20617;-60
2023/08/18 02:38:10;;;;;;;3.63;3.00;;;20.30;99.90;;;;;;5031142;28;20236;-59
2023/08/18 02:40:37;;;;;;;5.97;2.53;;;20.20;99.90;;;;;;5031095;28;20206;-60
2023/08/18 02:43:04;;;;;;;3.83;2.40;;;20.30;99.90;;;;;;5031061;28;20709;-58
2023/08/18 02:45:30;;;;;;;5.10;2.47;;;20.20;99.90;;;;;;5031126;28;20214;-59
2023/08/18 02:47:57;;;;;;;3.60;2.30;;;20.20;99.90;;;;;;5030926;28;20664;-60
2023/08/18 02:50:25;;;;;;;5.18;2.50;;;20.20;99.90;;;;;;5031289;28;20289;-58
2023/08/18 02:52:52;;;;;;;5.43;2.63;;;20.20;99.90;;;;;;5030897;28;20226;-59
2023/08/18 02:55:19;;;;;;;5.75;2.60;;;20.30;99.90;;;;;;5030928;28;20321;-58
2023/08/18 02:57:45;;;;;;;5.15;2.40;;;20.30;99.90;;;;;;5030677;28;20222;-59
2023/08/18 03:00:13;;;;;;;4.80;2.58;;;20.30;99.90;;;;;;5030699;28;20209;-58
2023/08/18 03:02:40;;;;;;;4.80;2.30;;;20.20;99.90;;;;;;5031052;28;20230;-58
2023/08/18 03:05:07;;;;;;;6.47;2.28;;;20.10;99.90;;;;;;5031083;28;20217;-59
2023/08/18 03:07:35;;;;;;;7.10;2.70;;;19.90;99.90;;;;;;5030458;28;20210;-59
2023/08/18 03:10:02;;;;;;;5.13;2.28;;;19.70;99.90;;;;;;5030740;28;20210;-59
2023/08/18 03:12:28;;;;;;;3.35;2.25;;;19.70;99.90;;;;;;5030652;28;20222;-58
2023/08/18 03:14:55;;;;;;;4.07;2.40;;;19.70;99.90;;;;;;5030888;28;20210;-59
2023/08/18 03:17:22;;;;;;;3.83;2.40;;;19.80;99.90;;;;;;5033349;28;20226;-59
2023/08/18 03:19:49;;;;;;;4.13;2.45;;;19.90;99.90;;;;;;5034374;28;20229;-59
2023/08/18 03:22:16;;;;;;;3.90;2.50;;;19.90;99.90;;;;;;5034156;28;20277;-59
2023/08/18 03:24:44;;;;;;;3.38;2.33;;;19.90;99.90;;;;;;5034408;28;20666;-59
2023/08/18 03:27:10;;;;;;;4.78;2.30;;;19.80;99.90;;;;;;5033896;28;20205;-59
2023/08/18 03:29:37;;;;;;;6.90;2.15;;;19.80;99.90;;;;;;5034244;28;20582;-59
2023/08/18 03:32:04;;;;;;;5.90;2.67;;;19.70;99.90;;;;;;5034025;28;20209;-59
2023/08/18 03:34:31;;;;;;;5.30;2.47;;;19.70;99.90;;;;;;5034197;28;20210;-59
2023/08/18 03:36:58;;;;;;;3.28;2.35;;;19.70;99.90;;;;;;5033684;28;20210;-59
2023/08/18 03:39:25;;;;;;;4.43;2.40;;;19.70;99.90;;;;;;5033982;28;20678;-60
2023/08/18 03:41:53;;;;;;;2.72;2.15;;;19.60;99.90;;;;;;5033982;28;20213;-59
2023/08/18 03:44:19;;;;;;;4.40;2.60;;;19.50;99.90;;;;;;5033588;28;20245;-59
2023/08/18 03:46:46;;;;;;;4.75;2.45;;;19.40;99.90;;;;;;5033946;28;20217;-59
2023/08/18 03:49:13;;;;;;;2.70;2.20;;;19.30;99.90;;;;;;5034083;28;20709;-59
2023/08/18 03:51:40;;;;;;;3.25;2.30;;;19.20;99.90;;;;;;5033795;28;20206;-59
2023/08/18 03:54:06;;;;;;;2.45;1.95;;;19.10;99.90;;;;;;5033616;28;20246;-59
2023/08/18 03:56:33;;;;;;;5.82;2.78;;;19.10;99.90;;;;;;5033372;28;20206;-59
2023/08/18 03:59:01;;;;;;;5.13;2.50;;;19.10;99.90;;;;;;5033682;28;20233;-59
2023/08/18 04:01:28;;;;;;;4.07;2.55;;;19.10;99.90;;;;;;5033762;28;20212;-58
2023/08/18 04:03:57;;;;;;;6.20;2.70;;;19.00;99.90;;;;;;5033901;28;20285;-59
2023/08/18 04:06:23;;;;;;;8.27;2.50;;;19.00;99.90;;;;;;5033443;28;20210;-58
2023/08/18 04:09:06;;;;;;;4.47;2.58;;;19.00;99.90;;;;;;5033379;28;20202;-58
2023/08/18 04:11:32;;;;;;;3.47;2.35;;;19.10;99.90;;;;;;5033540;28;20217;-58
2023/08/18 04:14:00;;;;;;;4.97;2.67;;;19.10;99.90;;;;;;5033958;28;20230;-59
2023/08/18 04:16:27;;;;;;;7.63;2.65;;;19.30;99.90;;;;;;5033411;28;20289;-59
2023/08/18 04:18:54;;;;;;;7.60;2.80;;;19.40;99.90;;;;;;5033714;28;20227;-58
2023/08/18 04:21:21;;;;;;;4.88;2.45;;;19.40;99.90;;;;;;5034115;28;20234;-58
2023/08/18 04:23:47;;;;;;;5.68;2.38;;;19.40;99.90;;;;;;5033235;28;20222;-58
2023/08/18 04:26:14;;;;;;;5.10;2.67;;;19.30;99.90;;;;;;5032750;28;20202;-58
2023/08/18 04:28:41;;;;;;;6.45;2.40;;;19.00;99.90;;;;;;5032365;28;20708;-58
2023/08/18 04:31:09;;;;;;;3.92;2.20;;;18.80;99.90;;;;;;5033300;28;20631;-58
2023/08/18 04:33:36;;;;;;;3.97;2.60;;;18.80;99.90;;;;;;5033041;28;20242;-58
2023/08/18 04:36:03;;;;;;;5.70;2.42;;;18.80;99.90;;;;;;5032673;28;20202;-58
2023/08/18 04:38:30;;;;;;;3.15;2.40;;;18.90;99.90;;;;;;5032713;28;20222;-57
2023/08/18 04:40:57;;;;;;;3.88;2.33;;;18.90;99.90;;;;;;5032625;28;20705;-58
2023/08/18 04:43:24;;;;;;;4.88;3.20;;;18.90;99.90;;;;;;5032645;28;20269;-58
2023/08/18 04:45:51;;;;;;;5.07;2.40;;;18.90;99.90;;;;;;5032343;28;20237;-58
2023/08/18 04:48:19;;;;;;;3.63;2.80;;;19.00;99.90;;;;;;5032589;28;20297;-58
2023/08/18 04:50:46;;;;;;;3.53;2.33;;;19.00;99.90;;;;;;5032375;28;20861;-57
2023/08/18 04:53:12;;;;;;;3.58;2.70;;;19.10;99.90;;;;;;5032516;28;20280;-58
2023/08/18 04:55:40;;;;;;;7.40;3.05;;;19.20;99.90;;;;;;5032164;28;20221;-58
2023/08/18 04:58:09;;;;;;;6.10;2.70;;;19.10;99.90;;;;;;5032203;28;20218;-59
2023/08/18 05:00:35;;;;;;;5.07;3.00;;;19.10;99.90;;;;;;5032313;28;20206;-58
2023/08/18 05:03:03;;;;;;;4.57;2.67;;;19.20;99.90;;;;;;5032381;28;20229;-59
2023/08/18 05:05:32;;;;;;;3.88;2.55;;;19.30;99.90;;;;;;5032330;28;20293;-59
2023/08/18 05:07:58;;;;;;;5.65;2.80;;;19.50;99.90;;;;;;5032121;28;20206;-58
2023/08/18 05:10:25;;;;;;;4.18;2.78;;;19.70;99.90;;;;;;5032218;28;20575;-58
2023/08/18 05:12:52;;;;;;;3.35;2.42;;;19.80;99.90;;;;;;5031927;28;20292;-57
2023/08/18 05:15:19;;;;;;;4.95;2.47;;;19.80;99.90;;;;;;5032122;28;20720;-58
2023/08/18 05:17:45;;;;;;;3.72;2.40;;;19.90;99.90;;;;;;5031617;28;20226;-58
2023/08/18 05:20:12;;;;;;;5.53;2.85;;;19.90;99.90;;;;;;5031921;28;20237;-58
2023/08/18 05:22:40;;;;;;;7.50;2.95;;;19.80;99.90;;;;;;5031982;28;20237;-59
2023/08/18 05:25:08;;;;;;;5.28;2.63;;;19.80;99.90;;;;;;5032007;28;20280;-58
2023/08/18 05:27:36;;;;;;;4.72;2.50;;;19.70;99.90;;;;;;5031722;28;20206;-59
2023/08/18 05:30:05;;;;;;;4.97;2.60;;;19.70;99.90;;;;;;5031804;28;20618;-59
2023/08/18 05:32:31;;;;;;;3.03;2.60;;;19.90;99.90;;;;;;5031728;28;20717;-58
2023/08/18 05:34:58;;;;;;;3.05;2.45;;;20.00;99.90;;;;;;5031998;28;20206;-57
2023/08/18 05:37:25;;;;;;;6.75;2.47;;;20.10;99.90;;;;;;5031826;28;20206;-57
2023/08/18 05:39:56;;;;;;;4.70;2.75;;;20.30;99.90;;;;;;5031763;28;20210;-58
2023/08/18 05:42:22;;;;;;;5.38;2.90;;;20.40;99.90;;;;;;5031492;28;20241;-58
2023/08/18 05:44:49;;;;;;;5.13;2.50;;;20.70;99.90;;;;;;5031666;28;20624;-57
2023/08/18 05:47:16;;;;;;;2.67;2.22;;;21.10;99.90;;;;;;5031807;28;20225;-58
2023/08/18 05:49:43;;;;;;;4.75;2.33;;;21.90;99.90;;;;;;5031924;28;20206;-58
2023/08/18 05:52:09;;;;;;;3.10;2.30;;;23.10;99.90;;;;;;5031520;28;20214;-60
2023/08/18 05:54:36;;;;;;;3.83;1.95;;;24.60;99.90;;;;;;5031849;28;20268;-58
2023/08/18 05:57:04;;;;;;;5.57;2.17;;;26.10;99.90;;;;;;5031505;28;20293;-60
2023/08/18 05:59:32;;;;;;;2.45;2.03;;;27.30;99.90;;;;;;5031533;28;20321;-60
2023/08/18 06:01:58;;;;;;;2.78;1.70;;;28.40;99.90;;;;;;5031734;28;20213;-60
2023/08/18 06:04:25;;;;;;;4.47;2.00;;;29.40;99.90;;;;;;5031665;28;20206;-58
2023/08/18 06:06:52;;;;;;;5.00;1.95;;;30.30;99.90;;;;;;5031119;28;20210;-58
2023/08/18 06:09:19;;;;;;;3.67;1.80;;;31.00;99.90;;;;;;5031236;28;20297;-59
2023/08/18 06:11:45;;;;;;;1.98;1.77;;;31.50;99.90;;;;;;5031137;28;20202;-60
2023/08/18 06:14:13;;;;;;;2.58;1.63;;;32.10;99.90;;;;;;5031015;28;20733;-63
2023/08/18 06:16:40;;;;;;;1.95;1.50;;;32.70;99.90;;;;;;5030717;28;20657;-61
2023/08/18 06:19:08;;;;;;;4.22;2.42;;;33.20;99.90;;;;;;5031137;28;20230;-61
2023/08/18 06:21:34;;;;;;;1.90;1.60;;;33.80;99.90;;;;;;5031695;28;20304;-56
2023/08/18 06:24:03;;;;;;;3.20;1.90;;;34.20;99.90;;;;;;5031096;28;20233;-52
2023/08/18 06:26:29;;;;;;;3.10;1.50;;;34.50;98.40;;;;;;5030611;28;20635;-53
2023/08/18 06:28:56;;;;;;;2.83;1.48;;;34.40;97.20;;;;;;5031318;28;20210;-53
2023/08/18 06:31:24;;;;;;;4.25;1.95;;;34.50;96.70;;;;;;5031097;28;20214;-55
2023/08/18 06:33:51;;;;;;;2.30;1.38;;;34.70;95.50;;;;;;5031101;28;20233;-57
2023/08/18 06:36:17;;;;;;;5.40;1.67;;;34.80;94.40;;;;;;5030919;28;20577;-52
2023/08/18 06:38:44;;;;;;;2.63;1.63;;;34.80;93.90;;;;;;5030780;28;20329;-53
2023/08/18 06:41:11;;;;;;;2.55;1.50;;;34.60;93.30;;;;;;5031204;28;20211;-56
2023/08/18 06:43:37;;;;;;;3.97;2.20;;;34.50;93.00;;;;;;5030937;28;20233;-56
2023/08/18 06:46:05;;;;;;;3.42;1.40;;;34.30;92.90;;;;;;5030781;28;20206;-55
2023/08/18 06:48:33;;;;;;;3.78;1.50;;;34.20;93.20;;;;;;5030975;28;20229;-54
2023/08/18 06:51:00;;;;;;;2.28;1.63;;;34.50;93.20;;;;;;5031849;28;20212;-54
2023/08/18 06:53:27;;;;;;;3.05;1.83;;;34.90;91.50;;;;;;5034710;28;20258;-54
2023/08/18 06:55:56;;;;;;;2.60;1.35;;;35.00;91.40;;;;;;5034625;28;20210;-54
2023/08/18 06:58:23;;;;;;;2.75;1.60;;;34.90;90.60;;;;;;5034663;28;20348;-54
2023/08/18 07:00:49;;;;;;;2.25;1.60;;;34.70;91.10;;;;;;5034724;28;20638;-56
2023/08/18 07:03:16;;;;;;;1.98;1.35;;;35.10;90.60;;;;;;5034677;28;20226;-64
2023/08/18 07:05:45;;;;;;;4.50;1.30;;;35.30;89.40;;;;;;5034933;28;20239;-56
2023/08/18 07:08:12;;;;;;;2.75;1.48;;;35.50;89.50;;;;;;5034549;28;20245;-57
2023/08/18 07:10:38;;;;;;;2.70;1.52;;;35.70;88.10;;;;;;5034763;28;20213;-56
2023/08/18 07:13:05;;;;;;;2.85;1.60;;;36.30;85.80;;;;;;5034174;28;20710;-61
2023/08/18 07:15:32;;;;;;;4.43;1.45;;;37.00;82.70;;;;;;5034392;28;20736;-55
2023/08/18 07:17:59;;;;;;;2.13;1.30;;;37.40;81.20;;;;;;5030701;28;20206;-55
2023/08/18 07:20:25;;;;;;;3.38;1.33;;;37.60;78.40;;;;;;5032851;28;20228;-54
2023/08/18 07:22:55;;;;;;;3.00;1.35;;;37.50;78.00;;;;;;5033298;28;20234;-56
2023/08/18 07:25:22;;;;;;;3.50;1.23;;;37.60;77.60;;;;;;5033347;28;20210;-61
2023/08/18 07:27:49;;;;;;;2.38;1.50;;;38.00;76.80;;;;;;5032919;28;20222;-59
2023/08/18 07:30:16;;;;;;;2.33;1.20;;;38.40;73.10;;;;;;5032965;28;20206;-59
2023/08/18 07:32:43;;;;;;;3.03;1.50;;;38.60;72.00;;;;;;5033474;28;20237;-59
2023/08/18 07:35:10;;;;;;;4.32;1.50;;;37.00;74.50;;;;;;5033005;28;20210;-58
2023/08/18 07:37:36;;;;;;;3.05;1.45;;;35.40;77.90;;;;;;5032587;28;20213;-61
2023/08/18 07:40:09;;;;;;;2.72;1.48;;;34.00;82.00;;;;;;5032765;28;20633;-57
2023/08/18 07:42:36;;;;;;;2.50;1.50;;;33.10;84.90;;;;;;5033248;28;20284;-58
2023/08/18 07:45:03;;;;;;;4.70;1.45;;;33.20;86.40;;;;;;5032570;28;20300;-57
2023/08/18 07:47:29;;;;;;;2.60;1.17;;;34.50;83.50;;;;;;5032311;28;20207;-63
2023/08/18 07:49:56;;;;;;;4.32;1.60;;;35.80;79.50;;;;;;5032714;28;20213;-58
2023/08/18 07:52:23;;;;;;;5.60;1.88;;;36.70;77.70;;;;;;5032458;28;20584;-59
2023/08/18 07:54:50;;;;;;;4.88;1.58;;;37.50;75.90;;;;;;5032712;28;20202;-59
2023/08/18 07:57:18;;;;;;;2.30;1.30;;;38.40;73.00;;;;;;5032452;28;20398;-57
2023/08/18 07:59:45;;;;;;;2.95;1.30;;;38.80;70.50;;;;;;5032508;28;20230;-61
2023/08/18 08:02:11;;;;;;;2.83;1.20;;;39.20;69.30;;;;;;5031614;28;20607;-60
2023/08/18 08:04:38;;;;;;;1.88;1.35;;;39.40;69.40;;;;;;5032370;28;20210;-60
2023/08/18 08:07:05;;;;;;;3.45;1.30;;;39.80;67.50;;;;;;5032302;28;20202;-59
2023/08/18 08:09:32;;;;;;;3.10;1.30;;;40.30;66.60;;;;;;5032392;28;20210;-63
2023/08/18 08:11:58;;;;;;;1.25;1.13;;;40.50;64.00;;;;;;5032313;28;20205;-61
2023/08/18 08:14:26;;;;;;;2.20;1.38;;;40.70;63.10;;;;;;5032287;28;20209;-61
2023/08/18 08:16:53;;;;;;;1.25;1.08;;;40.90;61.50;;;;;;5032285;28;20210;-62
2023/08/18 08:19:20;;;;;;;1.35;1.10;;;41.10;61.00;;;;;;5033293;28;20239;-60
2023/08/18 08:21:46;;;;;;;3.55;1.30;;;41.30;60.40;;;;;;5033211;28;20205;-57
2023/08/18 08:24:13;;;;;;;1.58;1.30;;;41.30;60.60;;;;;;5033023;28;20576;-58
2023/08/18 08:26:40;;;;;;;2.38;1.42;;;41.20;60.70;;;;;;5032834;28;20209;-58
2023/08/18 08:29:07;;;;;;;3.40;1.52;;;40.70;61.50;;;;;;5032694;28;20206;-58
2023/08/18 08:31:35;;;;;;;2.70;1.40;;;39.50;63.60;;;;;;5033022;28;20210;-57
2023/08/18 08:34:01;;;;;;;2.75;1.38;;;37.80;67.10;;;;;;5032984;28;20233;-58
2023/08/18 08:36:32;;;;;;;2.78;1.50;;;36.20;69.60;;;;;;5032562;28;20206;-58
2023/08/18 08:38:59;;;;;;;1.70;1.30;;;34.80;73.40;;;;;;5032951;28;20316;-57
2023/08/18 08:41:26;;;;;;;4.03;1.52;;;33.40;77.90;;;;;;5032917;28;20690;-58
2023/08/18 08:43:53;;;;;;;3.80;1.98;;;32.20;81.00;;;;;;5032627;28;20242;-58
2023/08/18 08:46:19;;;;;;;4.20;1.90;;;31.30;84.00;;;;;;5032591;28;20265;-58
2023/08/18 08:48:48;;;;;;;3.58;1.60;;;30.60;86.80;;;;;;5032934;28;20294;-58
2023/08/18 08:51:16;;;;;;;2.40;1.48;;;29.90;89.80;;;;;;5032768;28;20214;-58
2023/08/18 08:53:47;;;;;;;2.50;1.40;;;29.50;91.00;;;;;;5032660;28;20226;-58
2023/08/18 08:56:15;;;;;;;4.15;1.85;;;29.10;92.40;;;;;;5032153;28;20210;-58
2023/08/18 08:58:43;;;;;;;3.58;1.80;;;28.80;93.00;;;;;;5032323;28;20768;-58
2023/08/18 09:01:10;;;;;;;3.40;1.85;;;28.70;93.60;;;;;;5032564;28;20206;-57
2023/08/18 09:03:37;;;;;;;1.67;1.40;;;28.70;93.90;;;;;;5032516;28;20230;-58
2023/08/18 09:06:06;;;;;;;4.55;2.03;;;28.30;94.30;;;;;;5031898;28;20726;-57
2023/08/18 09:08:33;;;;;;;3.47;1.70;;;28.20;95.10;;;;;;5032167;28;20344;-58
2023/08/18 09:11:00;;;;;;;5.70;1.77;;;28.00;95.80;;;;;;5032109;28;20207;-57
2023/08/18 09:13:27;;;;;;;3.38;1.65;;;28.10;96.30;;;;;;5032008;28;20227;-58
2023/08/18 09:15:53;;;;;;;3.17;1.48;;;28.20;95.90;;;;;;5031901;28;20207;-58
2023/08/18 09:18:20;;;;;;;2.25;1.70;;;28.20;95.70;;;;;;5032094;28;20211;-58
2023/08/18 09:20:47;;;;;;;1.80;1.38;;;28.20;95.80;;;;;;5031857;28;20230;-58
2023/08/18 09:23:18;;;;;;;2.42;1.60;;;28.30;95.90;;;;;;5031924;28;20233;-58
2023/08/18 09:25:44;;;;;;;2.13;1.48;;;28.30;96.00;;;;;;5032052;28;20199;-58
2023/08/18 09:28:11;;;;;;;2.13;1.33;;;28.30;95.90;;;;;;5031947;28;20667;-59
2023/08/18 09:30:38;;;;;;;5.55;1.40;;;28.30;96.20;;;;;;5032128;28;20202;-58
2023/08/18 09:33:05;;;;;;;1.83;1.40;;;28.40;96.30;;;;;;5031936;28;20226;-58
2023/08/18 09:35:34;;;;;;;5.90;1.40;;;28.40;95.80;;;;;;5031905;28;20587;-59
2023/08/18 09:38:01;;;;;;;3.13;1.60;;;28.50;96.00;;;;;;5031503;28;20301;-58
2023/08/18 09:40:30;;;;;;;4.40;1.55;;;28.60;95.80;;;;;;5032141;28;20230;-58
2023/08/18 09:42:57;;;;;;;2.97;1.30;;;28.60;95.60;;;;;;5031503;28;20722;-58
2023/08/18 09:45:26;;;;;;;3.28;1.40;;;28.70;95.20;;;;;;5031693;28;20210;-58
2023/08/18 09:47:55;;;;;;;5.05;1.13;;;28.80;95.30;;;;;;5031511;28;20242;-57
2023/08/18 09:50:24;;;;;;;3.97;1.63;;;28.90;94.20;;;;;;5031562;28;20202;-58
2023/08/18 09:52:54;;;;;;;2.65;1.40;;;29.00;94.10;;;;;;5032179;28;20233;-57
2023/08/18 09:55:26;;;;;;;1.88;1.25;;;29.10;94.10;;;;;;5032099;28;20241;-57
2023/08/18 09:57:57;;;;;;;1.70;1.30;;;29.30;93.80;;;;;;5031331;28;20668;-57
2023/08/18 10:00:27;;;;;;;2.28;1.20;;;29.40;92.70;;;;;;5031675;28;20225;-57
2023/08/18 10:02:55;;;;;;;1.75;1.05;;;29.40;93.40;;;;;;5031224;28;20237;-57
2023/08/18 10:05:23;;;;;;;2.05;1.30;;;29.40;93.40;;;;;;5031645;28;20206;-58
2023/08/18 10:07:51;;;;;;;2.47;1.42;;;29.40;93.20;;;;;;5031166;28;20252;-58
2023/08/18 10:10:19;;;;;;;2.28;1.23;;;29.50;93.30;;;;;;5031240;28;20689;-58
2023/08/18 10:12:46;;;;;;;3.67;1.48;;;29.70;92.10;;;;;;5031332;28;20637;-58
2023/08/18 10:15:15;;;;;;;2.78;1.40;;;29.80;92.10;;;;;;5031205;28;20214;-57
2023/08/18 10:17:43;;;;;;;2.88;1.02;;;30.00;91.90;;;;;;5030678;28;20202;-58
2023/08/18 10:20:12;;;;;;;1.90;1.30;;;30.00;91.40;;;;;;5031503;28;20300;-58
2023/08/18 10:22:39;;;;;;;2.08;1.20;;;30.00;91.70;;;;;;5031407;28;20407;-58
2023/08/18 10:25:07;;;;;;;3.47;1.13;;;30.10;90.50;;;;;;5031386;28;20293;-58
2023/08/18 10:27:38;;;;;;;2.58;1.20;;;30.10;90.80;;;;;;5034468;28;20206;-57
2023/08/18 10:30:28;;;;;;;3.58;1.08;;;30.00;90.20;;;;;;5035366;28;20205;-57
2023/08/18 10:33:00;;;;;;;2.30;1.48;;;30.00;90.90;;;;;;5035328;28;20249;-57
2023/08/18 10:35:28;;;;;;;5.38;1.23;;;30.20;90.80;;;;;;5035340;28;20210;-57
2023/08/18 10:37:56;;;;;;;1.63;1.20;;;30.20;90.90;;;;;;5035045;28;20202;-57
2023/08/18 10:40:24;;;;;;;2.78;1.30;;;30.30;91.00;;;;;;5034947;28;20229;-58
2023/08/18 10:42:52;;;;;;;1.70;1.13;;;30.20;90.30;;;;;;5035108;28;20230;-58
2023/08/18 10:45:26;;;;;;;1.42;1.10;;;30.10;90.00;;;;;;5035337;28;20269;-58
2023/08/18 10:47:58;;;;;;;2.35;1.20;;;30.20;89.60;;;;;;5034878;28;20246;-58
2023/08/18 10:50:26;;;;;;;2.05;1.17;;;30.20;89.40;;;;;;5034725;28;20324;-56
2023/08/18 10:52:54;;;;;;;1.23;0.95;;;30.20;90.40;;;;;;5034936;28;20230;-62
2023/08/18 10:55:21;;;;;;;3.33;1.30;;;30.40;89.30;;;;;;5035026;28;20214;-61
2023/08/18 10:57:48;;;;;;;3.42;1.10;;;30.50;87.50;;;;;;5035005;28;20256;-61
2023/08/18 11:00:17;;;;;;;1.55;1.15;;;30.70;86.70;;;;;;5034914;28;20226;-60
2023/08/18 11:02:44;;;;;;;2.90;1.80;;;30.80;86.30;;;;;;5035090;28;20249;-62
2023/08/18 11:05:13;;;;;;;1.73;1.00;;;30.90;85.90;;;;;;5034652;28;20245;-61
2023/08/18 11:07:40;;;;;;;1.92;1.20;;;31.00;86.00;;;;;;5034650;28;20206;-62
2023/08/18 11:10:15;;;;;;;2.10;1.13;;;31.10;85.40;;;;;;5034973;28;20199;-61
2023/08/18 11:12:42;;;;;;;4.65;1.10;;;31.00;86.00;;;;;;5035143;28;20249;-63
2023/08/18 11:15:09;;;;;;;3.17;1.30;;;31.10;86.40;;;;;;5034882;28;20712;-62
2023/08/18 11:17:36;;;;;;;2.60;1.05;;;31.20;86.50;;;;;;5034509;28;20213;-63
2023/08/18 11:20:06;;;;;;;2.08;0.95;;;31.30;86.70;;;;;;5034542;28;20271;-62
2023/08/18 11:22:37;;;;;;;4.10;1.65;;;31.30;85.80;;;;;;5034599;28;20777;-61
2023/08/18 11:25:04;;;;;;;3.72;1.20;;;31.40;85.30;;;;;;5034627;28;20300;-61
2023/08/18 11:27:32;;;;;;;2.08;1.15;;;31.50;85.00;;;;;;5034159;28;20210;-62
2023/08/18 11:29:58;;;;;;;1.73;0.93;;;31.60;85.00;;;;;;5034382;28;20233;-61
2023/08/18 11:32:25;;;;;;;3.25;1.30;;;31.80;84.20;;;;;;5034466;28;20223;-62
2023/08/18 11:34:52;;;;;;;2.20;1.27;;;31.90;84.30;;;;;;5034043;28;20210;-61
2023/08/18 11:37:21;;;;;;;1.83;1.20;;;32.00;84.40;;;;;;5033916;28;20206;-63
2023/08/18 11:39:49;;;;;;;2.67;1.27;;;31.90;83.30;;;;;;5034172;28;20674;-62
2023/08/18 11:42:17;;;;;;;1.90;1.20;;;31.90;83.40;;;;;;5033883;28;20261;-61
2023/08/18 11:44:44;;;;;;;1.65;1.10;;;32.00;83.50;;;;;;5034269;28;20221;-61
2023/08/18 11:47:12;;;;;;;1.65;1.10;;;32.10;83.90;;;;;;5033538;28;20271;-62
2023/08/18 11:49:39;;;;;;;3.47;1.13;;;32.10;83.20;;;;;;5034116;28;20238;-60
2023/08/18 11:52:06;;;;;;;1.52;1.00;;;32.10;82.70;;;;;;5033750;28;20690;-62
2023/08/18 11:54:35;;;;;;;3.25;1.20;;;32.20;80.60;;;;;;5033768;28;20617;-61
2023/08/18 11:57:05;;;;;;;4.78;1.27;;;32.20;81.30;;;;;;5033728;28;20221;-62
2023/08/18 11:59:32;;;;;;;2.33;1.20;;;32.30;80.70;;;;;;5033652;28;20210;-61
2023/08/18 12:02:01;;;;;;;1.95;1.08;;;32.40;81.60;;;;;;5033759;28;20693;-61
2023/08/18 12:04:29;;;;;;;1.92;1.23;;;32.40;80.60;;;;;;5033512;28;20693;-61
2023/08/18 12:06:56;;;;;;;3.80;1.00;;;32.30;79.90;;;;;;5033679;28;20210;-61
2023/08/18 12:09:23;;;;;;;2.90;1.10;;;32.20;78.90;;;;;;5033642;28;20217;-61
2023/08/18 12:11:51;;;;;;;2.90;1.20;;;32.40;77.70;;;;;;5033398;28;20217;-61
2023/08/18 12:14:20;;;;;;;4.03;1.10;;;32.40;77.50;;;;;;5033327;28;20230;-63
2023/08/18 12:16:47;;;;;;;3.10;1.20;;;32.50;77.50;;;;;;5033355;28;20206;-61
2023/08/18 12:19:13;;;;;;;3.88;1.38;;;32.40;77.40;;;;;;5033537;28;20758;-61
2023/08/18 12:21:40;;;;;;;1.92;1.27;;;32.60;77.10;;;;;;5033670;28;20284;-61
2023/08/18 12:24:08;;;;;;;3.85;1.33;;;32.60;76.60;;;;;;5033464;28;20222;-60
2023/08/18 12:26:37;;;;;;;3.20;1.30;;;32.60;77.20;;;;;;5032909;28;20214;-62
2023/08/18 12:29:04;;;;;;;2.03;1.48;;;32.60;75.90;;;;;;5033253;28;20210;-61
2023/08/18 12:31:32;;;;;;;2.85;1.23;;;32.60;74.50;;;;;;5033171;28;20571;-61
2023/08/18 12:34:01;;;;;;;2.28;1.05;;;32.70;74.30;;;;;;5033142;28;20771;-62
2023/08/18 12:36:27;;;;;;;2.78;1.50;;;32.70;76.90;;;;;;5032909;28;20236;-62
2023/08/18 12:38:54;;;;;;;3.08;1.50;;;32.70;77.00;;;;;;5033068;28;20213;-61
2023/08/18 12:41:23;;;;;;;3.33;1.20;;;32.80;78.80;;;;;;5032834;28;20325;-61
2023/08/18 12:43:50;;;;;;;1.98;1.15;;;32.80;76.60;;;;;;5032606;28;20732;-61
2023/08/18 12:46:17;;;;;;;5.75;1.35;;;32.80;76.30;;;;;;5032593;28;20221;-62
2023/08/18 12:48:45;;;;;;;2.30;1.02;;;32.90;74.80;;;;;;5032108;28;20697;-61